sensor_id;sensor_type;location;lat;lon;timestamp;P1;durP1;ratioP1;P2;durP2;ratioP2
13347;SDS011;6743;49.934;9.138;2023-02-28T00:01:08;0.90;;;0.90;;
13347;SDS011;6743;49.934;9.138;2023-02-28T00:03:34;0.60;;;0.60;;
13347;SDS011;6743;49.934;9.138;2023-02-28T00:06:02;0.60;;;0.60;;
13347;SDS011;6743;49.934;9.138;2023-02-28T00:08:29;0.70;;;0.70;;
13347;SDS011;6743;49.934;9.138;2023-02-28T00:10:55;0.73;;;0.73;;
13347;SDS011;6743;49.934;9.138;2023-02-28T00:13:21;0.53;;;0.53;;
13347;SDS011;6743;49.934;9.138;2023-02-28T00:15:47;0.70;;;0.70;;
13347;SDS011;6743;49.934;9.138;2023-02-28T00:18:23;1.13;;;0.90;;
13347;SDS011;6743;49.934;9.138;2023-02-28T00:20:49;0.40;;;0.40;;
13347;SDS011;6743;49.934;9.138;2023-02-28T00:23:16;0.57;;;0.57;;
13347;SDS011;6743;49.934;9.138;2023-02-28T00:25:42;0.63;;;0.63;;
13347;SDS011;6743;49.934;9.138;2023-02-28T00:28:08;0.70;;;0.70;;
13347;SDS011;6743;49.934;9.138;2023-02-28T00:30:34;0.70;;;0.70;;
13347;SDS011;6743;49.934;9.138;2023-02-28T00:33:00;0.70;;;0.70;;
13347;SDS011;6743;49.934;9.138;2023-02-28T00:35:26;0.67;;;0.67;;
13347;SDS011;6743;49.934;9.138;2023-02-28T00:37:52;0.67;;;0.67;;
13347;SDS011;6743;49.934;9.138;2023-02-28T00:40:19;0.83;;;0.83;;
13347;SDS011;6743;49.934;9.138;2023-02-28T00:42:45;2.33;;;0.70;;
13347;SDS011;6743;49.934;9.138;2023-02-28T00:45:11;0.60;;;0.60;;
13347;SDS011;6743;49.934;9.138;2023-02-28T00:47:38;0.60;;;0.60;;
13347;SDS011;6743;49.934;9.138;2023-02-28T00:50:04;1.23;;;0.90;;
13347;SDS011;6743;49.934;9.138;2023-02-28T00:52:31;0.60;;;0.60;;
13347;SDS011;6743;49.934;9.138;2023-02-28T00:54:57;0.87;;;0.83;;
13347;SDS011;6743;49.934;9.138;2023-02-28T00:57:24;0.63;;;0.63;;
13347;SDS011;6743;49.934;9.138;2023-02-28T00:59:50;0.60;;;0.60;;
13347;SDS011;6743;49.934;9.138;2023-02-28T01:02:16;0.67;;;0.63;;
13347;SDS011;6743;49.934;9.138;2023-02-28T01:04:43;0.50;;;0.50;;
13347;SDS011;6743;49.934;9.138;2023-02-28T01:07:09;0.40;;;0.40;;
13347;SDS011;6743;49.934;9.138;2023-02-28T01:09:35;0.40;;;0.40;;
13347;SDS011;6743;49.934;9.138;2023-02-28T01:12:01;0.87;;;0.87;;
13347;SDS011;6743;49.934;9.138;2023-02-28T01:14:28;0.70;;;0.70;;
13347;SDS011;6743;49.934;9.138;2023-02-28T01:16:54;0.50;;;0.50;;
13347;SDS011;6743;49.934;9.138;2023-02-28T01:19:20;0.73;;;0.73;;
13347;SDS011;6743;49.934;9.138;2023-02-28T01:21:46;0.87;;;0.87;;
13347;SDS011;6743;49.934;9.138;2023-02-28T01:24:12;0.57;;;0.57;;
13347;SDS011;6743;49.934;9.138;2023-02-28T01:26:38;0.80;;;0.80;;
13347;SDS011;6743;49.934;9.138;2023-02-28T01:29:04;0.97;;;0.97;;
13347;SDS011;6743;49.934;9.138;2023-02-28T01:31:31;0.73;;;0.73;;
13347;SDS011;6743;49.934;9.138;2023-02-28T01:33:57;0.90;;;0.80;;
13347;SDS011;6743;49.934;9.138;2023-02-28T01:36:23;0.50;;;0.50;;
13347;SDS011;6743;49.934;9.138;2023-02-28T01:38:49;0.70;;;0.70;;
13347;SDS011;6743;49.934;9.138;2023-02-28T01:41:17;3.50;;;0.80;;
13347;SDS011;6743;49.934;9.138;2023-02-28T01:43:58;0.63;;;0.63;;
13347;SDS011;6743;49.934;9.138;2023-02-28T01:46:28;0.60;;;0.60;;
13347;SDS011;6743;49.934;9.138;2023-02-28T01:48:56;0.57;;;0.57;;
13347;SDS011;6743;49.934;9.138;2023-02-28T01:51:27;0.60;;;0.60;;
13347;SDS011;6743;49.934;9.138;2023-02-28T01:54:00;0.57;;;0.57;;
13347;SDS011;6743;49.934;9.138;2023-02-28T01:56:30;0.80;;;0.80;;
13347;SDS011;6743;49.934;9.138;2023-02-28T01:59:00;0.57;;;0.57;;
13347;SDS011;6743;49.934;9.138;2023-02-28T02:01:27;0.83;;;0.77;;
13347;SDS011;6743;49.934;9.138;2023-02-28T02:03:57;0.53;;;0.53;;
13347;SDS011;6743;49.934;9.138;2023-02-28T02:06:26;0.63;;;0.63;;
13347;SDS011;6743;49.934;9.138;2023-02-28T02:08:54;0.63;;;0.63;;
13347;SDS011;6743;49.934;9.138;2023-02-28T02:11:21;0.50;;;0.50;;
13347;SDS011;6743;49.934;9.138;2023-02-28T02:13:53;0.83;;;0.83;;
13347;SDS011;6743;49.934;9.138;2023-02-28T02:16:35;0.63;;;0.63;;
13347;SDS011;6743;49.934;9.138;2023-02-28T02:19:16;0.80;;;0.80;;
13347;SDS011;6743;49.934;9.138;2023-02-28T02:25:16;0.90;;;0.90;;
13347;SDS011;6743;49.934;9.138;2023-02-28T02:27:55;0.50;;;0.50;;
13347;SDS011;6743;49.934;9.138;2023-02-28T02:30:44;1.33;;;0.67;;
13347;SDS011;6743;49.934;9.138;2023-02-28T02:36:29;0.60;;;0.60;;
13347;SDS011;6743;49.934;9.138;2023-02-28T02:39:01;1.50;;;0.70;;
13347;SDS011;6743;49.934;9.138;2023-02-28T02:41:33;0.50;;;0.50;;
13347;SDS011;6743;49.934;9.138;2023-02-28T02:44:02;1.10;;;1.10;;
13347;SDS011;6743;49.934;9.138;2023-02-28T02:46:37;0.73;;;0.73;;
13347;SDS011;6743;49.934;9.138;2023-02-28T02:49:05;1.10;;;0.90;;
13347;SDS011;6743;49.934;9.138;2023-02-28T02:51:35;0.60;;;0.60;;
13347;SDS011;6743;49.934;9.138;2023-02-28T02:54:05;0.60;;;0.60;;
13347;SDS011;6743;49.934;9.138;2023-02-28T02:56:34;0.57;;;0.57;;
13347;SDS011;6743;49.934;9.138;2023-02-28T02:59:02;0.97;;;0.97;;
13347;SDS011;6743;49.934;9.138;2023-02-28T03:01:32;0.60;;;0.60;;
13347;SDS011;6743;49.934;9.138;2023-02-28T03:04:01;0.70;;;0.70;;
13347;SDS011;6743;49.934;9.138;2023-02-28T03:06:29;0.60;;;0.60;;
13347;SDS011;6743;49.934;9.138;2023-02-28T03:08:56;0.60;;;0.60;;
13347;SDS011;6743;49.934;9.138;2023-02-28T03:11:22;1.10;;;1.00;;
13347;SDS011;6743;49.934;9.138;2023-02-28T03:13:53;0.70;;;0.70;;
13347;SDS011;6743;49.934;9.138;2023-02-28T03:16:36;0.80;;;0.80;;
13347;SDS011;6743;49.934;9.138;2023-02-28T03:22:14;0.87;;;0.87;;
13347;SDS011;6743;49.934;9.138;2023-02-28T03:24:50;0.50;;;0.50;;
13347;SDS011;6743;49.934;9.138;2023-02-28T03:27:23;0.57;;;0.57;;
13347;SDS011;6743;49.934;9.138;2023-02-28T03:29:55;0.67;;;0.67;;
13347;SDS011;6743;49.934;9.138;2023-02-28T03:32:27;0.80;;;0.80;;
13347;SDS011;6743;49.934;9.138;2023-02-28T03:35:00;0.80;;;0.80;;
13347;SDS011;6743;49.934;9.138;2023-02-28T03:37:32;0.53;;;0.53;;
13347;SDS011;6743;49.934;9.138;2023-02-28T03:40:02;0.77;;;0.77;;
13347;SDS011;6743;49.934;9.138;2023-02-28T03:42:35;1.20;;;0.93;;
13347;SDS011;6743;49.934;9.138;2023-02-28T03:45:04;0.43;;;0.43;;
13347;SDS011;6743;49.934;9.138;2023-02-28T03:47:35;0.50;;;0.50;;
13347;SDS011;6743;49.934;9.138;2023-02-28T03:50:06;0.53;;;0.53;;
13347;SDS011;6743;49.934;9.138;2023-02-28T03:52:38;5.20;;;1.17;;
13347;SDS011;6743;49.934;9.138;2023-02-28T03:55:10;0.60;;;0.60;;
13347;SDS011;6743;49.934;9.138;2023-02-28T03:57:40;0.70;;;0.70;;
13347;SDS011;6743;49.934;9.138;2023-02-28T04:00:17;0.80;;;0.80;;
13347;SDS011;6743;49.934;9.138;2023-02-28T04:02:46;0.70;;;0.70;;
13347;SDS011;6743;49.934;9.138;2023-02-28T04:05:17;0.70;;;0.70;;
13347;SDS011;6743;49.934;9.138;2023-02-28T04:07:44;0.73;;;0.70;;
13347;SDS011;6743;49.934;9.138;2023-02-28T04:10:10;2.57;;;0.83;;
13347;SDS011;6743;49.934;9.138;2023-02-28T04:12:37;0.83;;;0.83;;
13347;SDS011;6743;49.934;9.138;2023-02-28T04:15:03;1.33;;;1.23;;
13347;SDS011;6743;49.934;9.138;2023-02-28T04:17:31;0.53;;;0.53;;
13347;SDS011;6743;49.934;9.138;2023-02-28T04:19:57;0.60;;;0.60;;
13347;SDS011;6743;49.934;9.138;2023-02-28T04:22:23;1.07;;;1.00;;
13347;SDS011;6743;49.934;9.138;2023-02-28T04:24:51;1.20;;;1.20;;
13347;SDS011;6743;49.934;9.138;2023-02-28T04:27:31;0.70;;;0.70;;
13347;SDS011;6743;49.934;9.138;2023-02-28T04:29:57;0.83;;;0.83;;
13347;SDS011;6743;49.934;9.138;2023-02-28T04:32:23;0.93;;;0.93;;
13347;SDS011;6743;49.934;9.138;2023-02-28T04:34:49;1.07;;;1.00;;
13347;SDS011;6743;49.934;9.138;2023-02-28T04:37:15;0.63;;;0.63;;
13347;SDS011;6743;49.934;9.138;2023-02-28T04:39:41;0.70;;;0.70;;
13347;SDS011;6743;49.934;9.138;2023-02-28T04:42:08;1.03;;;1.00;;
13347;SDS011;6743;49.934;9.138;2023-02-28T04:44:35;0.90;;;0.90;;
13347;SDS011;6743;49.934;9.138;2023-02-28T04:47:01;0.50;;;0.50;;
13347;SDS011;6743;49.934;9.138;2023-02-28T04:49:27;0.60;;;0.60;;
13347;SDS011;6743;49.934;9.138;2023-02-28T04:51:53;0.80;;;0.80;;
13347;SDS011;6743;49.934;9.138;2023-02-28T04:54:19;0.67;;;0.67;;
13347;SDS011;6743;49.934;9.138;2023-02-28T04:56:49;0.60;;;0.60;;
13347;SDS011;6743;49.934;9.138;2023-02-28T04:59:20;0.43;;;0.43;;
13347;SDS011;6743;49.934;9.138;2023-02-28T05:01:47;0.60;;;0.60;;
13347;SDS011;6743;49.934;9.138;2023-02-28T05:04:14;0.70;;;0.70;;
13347;SDS011;6743;49.934;9.138;2023-02-28T05:06:40;1.27;;;1.17;;
13347;SDS011;6743;49.934;9.138;2023-02-28T05:09:06;0.73;;;0.70;;
13347;SDS011;6743;49.934;9.138;2023-02-28T05:11:33;0.80;;;0.80;;
13347;SDS011;6743;49.934;9.138;2023-02-28T05:14:00;0.70;;;0.70;;
13347;SDS011;6743;49.934;9.138;2023-02-28T05:16:27;0.80;;;0.80;;
13347;SDS011;6743;49.934;9.138;2023-02-28T05:18:54;0.60;;;0.60;;
13347;SDS011;6743;49.934;9.138;2023-02-28T05:21:27;0.70;;;0.70;;
13347;SDS011;6743;49.934;9.138;2023-02-28T05:23:55;0.50;;;0.50;;
13347;SDS011;6743;49.934;9.138;2023-02-28T05:26:22;0.40;;;0.40;;
13347;SDS011;6743;49.934;9.138;2023-02-28T05:28:49;0.40;;;0.40;;
13347;SDS011;6743;49.934;9.138;2023-02-28T05:31:15;0.60;;;0.60;;
13347;SDS011;6743;49.934;9.138;2023-02-28T05:33:41;0.60;;;0.60;;
13347;SDS011;6743;49.934;9.138;2023-02-28T05:36:08;0.50;;;0.50;;
13347;SDS011;6743;49.934;9.138;2023-02-28T05:38:34;0.70;;;0.70;;
13347;SDS011;6743;49.934;9.138;2023-02-28T05:41:04;1.27;;;1.27;;
13347;SDS011;6743;49.934;9.138;2023-02-28T05:43:31;3.60;;;2.83;;
13347;SDS011;6743;49.934;9.138;2023-02-28T05:45:57;1.00;;;1.00;;
13347;SDS011;6743;49.934;9.138;2023-02-28T05:48:23;0.60;;;0.60;;
13347;SDS011;6743;49.934;9.138;2023-02-28T05:50:51;0.80;;;0.80;;
13347;SDS011;6743;49.934;9.138;2023-02-28T05:53:17;1.00;;;1.00;;
13347;SDS011;6743;49.934;9.138;2023-02-28T05:55:43;0.70;;;0.70;;
13347;SDS011;6743;49.934;9.138;2023-02-28T05:58:09;0.70;;;0.70;;
13347;SDS011;6743;49.934;9.138;2023-02-28T06:00:35;0.80;;;0.80;;
13347;SDS011;6743;49.934;9.138;2023-02-28T06:03:01;1.17;;;1.13;;
13347;SDS011;6743;49.934;9.138;2023-02-28T06:05:28;3.63;;;1.40;;
13347;SDS011;6743;49.934;9.138;2023-02-28T06:07:54;0.70;;;0.70;;
13347;SDS011;6743;49.934;9.138;2023-02-28T06:10:20;0.80;;;0.80;;
13347;SDS011;6743;49.934;9.138;2023-02-28T06:12:46;0.70;;;0.70;;
13347;SDS011;6743;49.934;9.138;2023-02-28T06:15:13;0.50;;;0.50;;
13347;SDS011;6743;49.934;9.138;2023-02-28T06:17:40;0.57;;;0.57;;
13347;SDS011;6743;49.934;9.138;2023-02-28T06:20:07;0.83;;;0.53;;
13347;SDS011;6743;49.934;9.138;2023-02-28T06:22:34;3.03;;;1.20;;
13347;SDS011;6743;49.934;9.138;2023-02-28T06:25:01;0.93;;;0.60;;
13347;SDS011;6743;49.934;9.138;2023-02-28T06:27:27;0.50;;;0.50;;
13347;SDS011;6743;49.934;9.138;2023-02-28T06:29:54;0.80;;;0.80;;
13347;SDS011;6743;49.934;9.138;2023-02-28T06:32:20;0.70;;;0.70;;
13347;SDS011;6743;49.934;9.138;2023-02-28T06:34:47;0.77;;;0.77;;
13347;SDS011;6743;49.934;9.138;2023-02-28T06:37:13;0.93;;;0.93;;
13347;SDS011;6743;49.934;9.138;2023-02-28T06:39:39;0.67;;;0.67;;
13347;SDS011;6743;49.934;9.138;2023-02-28T06:42:05;0.70;;;0.70;;
13347;SDS011;6743;49.934;9.138;2023-02-28T06:44:32;1.20;;;1.20;;
13347;SDS011;6743;49.934;9.138;2023-02-28T06:47:00;1.50;;;1.40;;
13347;SDS011;6743;49.934;9.138;2023-02-28T06:49:28;0.57;;;0.57;;
13347;SDS011;6743;49.934;9.138;2023-02-28T06:51:54;0.80;;;0.80;;
13347;SDS011;6743;49.934;9.138;2023-02-28T06:54:20;0.60;;;0.60;;
13347;SDS011;6743;49.934;9.138;2023-02-28T06:56:46;0.47;;;0.47;;
13347;SDS011;6743;49.934;9.138;2023-02-28T06:59:12;0.57;;;0.57;;
13347;SDS011;6743;49.934;9.138;2023-02-28T07:01:39;0.50;;;0.50;;
13347;SDS011;6743;49.934;9.138;2023-02-28T07:04:06;0.70;;;0.70;;
13347;SDS011;6743;49.934;9.138;2023-02-28T07:06:32;0.70;;;0.70;;
13347;SDS011;6743;49.934;9.138;2023-02-28T07:08:58;0.80;;;0.70;;
13347;SDS011;6743;49.934;9.138;2023-02-28T07:11:25;0.40;;;0.40;;
13347;SDS011;6743;49.934;9.138;2023-02-28T07:13:52;0.40;;;0.40;;
13347;SDS011;6743;49.934;9.138;2023-02-28T07:16:19;1.30;;;0.80;;
13347;SDS011;6743;49.934;9.138;2023-02-28T07:18:46;2.17;;;0.60;;
13347;SDS011;6743;49.934;9.138;2023-02-28T07:21:12;0.97;;;0.93;;
13347;SDS011;6743;49.934;9.138;2023-02-28T07:23:39;0.53;;;0.53;;
13347;SDS011;6743;49.934;9.138;2023-02-28T07:26:05;0.57;;;0.57;;
13347;SDS011;6743;49.934;9.138;2023-02-28T07:28:32;0.73;;;0.73;;
13347;SDS011;6743;49.934;9.138;2023-02-28T07:31:02;0.70;;;0.70;;
13347;SDS011;6743;49.934;9.138;2023-02-28T07:33:29;0.57;;;0.57;;
13347;SDS011;6743;49.934;9.138;2023-02-28T07:36:00;0.80;;;0.80;;
13347;SDS011;6743;49.934;9.138;2023-02-28T07:38:26;0.53;;;0.53;;
13347;SDS011;6743;49.934;9.138;2023-02-28T07:40:52;0.70;;;0.70;;
13347;SDS011;6743;49.934;9.138;2023-02-28T07:43:18;0.83;;;0.83;;
13347;SDS011;6743;49.934;9.138;2023-02-28T07:45:44;0.50;;;0.50;;
13347;SDS011;6743;49.934;9.138;2023-02-28T07:48:10;1.30;;;1.17;;
13347;SDS011;6743;49.934;9.138;2023-02-28T07:50:36;1.30;;;1.30;;
13347;SDS011;6743;49.934;9.138;2023-02-28T07:53:03;0.97;;;0.97;;
13347;SDS011;6743;49.934;9.138;2023-02-28T07:55:29;0.90;;;0.90;;
13347;SDS011;6743;49.934;9.138;2023-02-28T07:57:56;0.50;;;0.50;;
13347;SDS011;6743;49.934;9.138;2023-02-28T08:00:22;1.03;;;1.03;;
13347;SDS011;6743;49.934;9.138;2023-02-28T08:02:49;0.77;;;0.77;;
13347;SDS011;6743;49.934;9.138;2023-02-28T08:05:15;1.23;;;1.23;;
13347;SDS011;6743;49.934;9.138;2023-02-28T08:07:41;0.93;;;0.93;;
13347;SDS011;6743;49.934;9.138;2023-02-28T08:10:08;4.87;;;1.47;;
13347;SDS011;6743;49.934;9.138;2023-02-28T08:12:35;0.93;;;0.93;;
13347;SDS011;6743;49.934;9.138;2023-02-28T08:15:01;0.77;;;0.77;;
13347;SDS011;6743;49.934;9.138;2023-02-28T08:17:28;1.10;;;1.10;;
13347;SDS011;6743;49.934;9.138;2023-02-28T08:19:53;1.70;;;1.60;;
13347;SDS011;6743;49.934;9.138;2023-02-28T08:22:20;1.00;;;1.00;;
13347;SDS011;6743;49.934;9.138;2023-02-28T08:24:46;0.90;;;0.90;;
13347;SDS011;6743;49.934;9.138;2023-02-28T08:27:13;1.00;;;0.83;;
13347;SDS011;6743;49.934;9.138;2023-02-28T08:29:39;0.60;;;0.60;;
13347;SDS011;6743;49.934;9.138;2023-02-28T08:32:05;0.97;;;0.97;;
13347;SDS011;6743;49.934;9.138;2023-02-28T08:34:31;1.50;;;1.40;;
13347;SDS011;6743;49.934;9.138;2023-02-28T08:36:57;0.90;;;0.90;;
13347;SDS011;6743;49.934;9.138;2023-02-28T08:39:23;1.10;;;1.07;;
13347;SDS011;6743;49.934;9.138;2023-02-28T08:41:49;2.80;;;1.40;;
13347;SDS011;6743;49.934;9.138;2023-02-28T08:44:15;1.40;;;1.30;;
13347;SDS011;6743;49.934;9.138;2023-02-28T08:46:42;0.87;;;0.87;;
13347;SDS011;6743;49.934;9.138;2023-02-28T08:49:09;0.83;;;0.83;;
13347;SDS011;6743;49.934;9.138;2023-02-28T08:51:36;1.30;;;1.23;;
13347;SDS011;6743;49.934;9.138;2023-02-28T08:54:04;4.37;;;1.70;;
13347;SDS011;6743;49.934;9.138;2023-02-28T08:56:30;2.30;;;1.13;;
13347;SDS011;6743;49.934;9.138;2023-02-28T08:58:56;2.10;;;1.40;;
13347;SDS011;6743;49.934;9.138;2023-02-28T09:01:23;1.50;;;1.40;;
13347;SDS011;6743;49.934;9.138;2023-02-28T09:03:52;1.13;;;1.13;;
13347;SDS011;6743;49.934;9.138;2023-02-28T09:06:20;1.10;;;1.00;;
13347;SDS011;6743;49.934;9.138;2023-02-28T09:08:48;1.00;;;1.00;;
13347;SDS011;6743;49.934;9.138;2023-02-28T09:11:14;1.57;;;1.47;;
13347;SDS011;6743;49.934;9.138;2023-02-28T09:13:41;1.00;;;0.90;;
13347;SDS011;6743;49.934;9.138;2023-02-28T09:16:07;2.33;;;1.43;;
13347;SDS011;6743;49.934;9.138;2023-02-28T09:18:36;1.47;;;1.37;;
13347;SDS011;6743;49.934;9.138;2023-02-28T09:21:03;1.90;;;1.63;;
13347;SDS011;6743;49.934;9.138;2023-02-28T09:23:29;1.83;;;1.73;;
13347;SDS011;6743;49.934;9.138;2023-02-28T09:25:55;2.40;;;1.30;;
13347;SDS011;6743;49.934;9.138;2023-02-28T09:28:22;1.20;;;1.20;;
13347;SDS011;6743;49.934;9.138;2023-02-28T09:30:49;1.60;;;1.50;;
13347;SDS011;6743;49.934;9.138;2023-02-28T09:33:16;1.30;;;1.20;;
13347;SDS011;6743;49.934;9.138;2023-02-28T09:35:46;0.83;;;0.83;;
13347;SDS011;6743;49.934;9.138;2023-02-28T09:38:12;0.80;;;0.80;;
13347;SDS011;6743;49.934;9.138;2023-02-28T09:40:41;1.20;;;1.10;;
13347;SDS011;6743;49.934;9.138;2023-02-28T09:43:14;1.27;;;1.17;;
13347;SDS011;6743;49.934;9.138;2023-02-28T09:45:42;1.43;;;1.33;;
13347;SDS011;6743;49.934;9.138;2023-02-28T09:48:16;1.40;;;1.30;;
13347;SDS011;6743;49.934;9.138;2023-02-28T09:50:46;1.90;;;1.23;;
13347;SDS011;6743;49.934;9.138;2023-02-28T09:53:16;1.23;;;1.13;;
13347;SDS011;6743;49.934;9.138;2023-02-28T09:55:48;1.23;;;1.13;;
13347;SDS011;6743;49.934;9.138;2023-02-28T09:58:18;0.77;;;0.77;;
13347;SDS011;6743;49.934;9.138;2023-02-28T10:00:49;1.30;;;1.20;;
13347;SDS011;6743;49.934;9.138;2023-02-28T10:03:25;1.70;;;1.60;;
13347;SDS011;6743;49.934;9.138;2023-02-28T10:05:57;0.60;;;0.53;;
13347;SDS011;6743;49.934;9.138;2023-02-28T10:08:32;1.03;;;1.03;;
13347;SDS011;6743;49.934;9.138;2023-02-28T10:11:09;0.90;;;0.90;;
13347;SDS011;6743;49.934;9.138;2023-02-28T10:13:39;1.07;;;0.97;;
13347;SDS011;6743;49.934;9.138;2023-02-28T10:16:16;0.90;;;0.90;;
13347;SDS011;6743;49.934;9.138;2023-02-28T10:18:46;1.13;;;1.13;;
13347;SDS011;6743;49.934;9.138;2023-02-28T10:21:19;1.33;;;1.23;;
13347;SDS011;6743;49.934;9.138;2023-02-28T10:23:49;1.77;;;1.60;;
13347;SDS011;6743;49.934;9.138;2023-02-28T10:26:21;1.10;;;1.10;;
13347;SDS011;6743;49.934;9.138;2023-02-28T10:28:51;1.90;;;1.10;;
13347;SDS011;6743;49.934;9.138;2023-02-28T10:31:19;0.90;;;0.90;;
13347;SDS011;6743;49.934;9.138;2023-02-28T10:33:46;1.20;;;1.20;;
13347;SDS011;6743;49.934;9.138;2023-02-28T10:36:13;1.20;;;1.20;;
13347;SDS011;6743;49.934;9.138;2023-02-28T10:38:42;1.30;;;1.20;;
13347;SDS011;6743;49.934;9.138;2023-02-28T10:41:10;1.33;;;1.33;;
13347;SDS011;6743;49.934;9.138;2023-02-28T10:43:39;1.20;;;1.20;;
13347;SDS011;6743;49.934;9.138;2023-02-28T10:46:10;1.50;;;1.33;;
13347;SDS011;6743;49.934;9.138;2023-02-28T10:48:57;1.43;;;0.87;;
13347;SDS011;6743;49.934;9.138;2023-02-28T10:51:33;1.27;;;1.10;;
13347;SDS011;6743;49.934;9.138;2023-02-28T10:54:02;1.43;;;1.40;;
13347;SDS011;6743;49.934;9.138;2023-02-28T10:56:29;1.50;;;1.40;;
13347;SDS011;6743;49.934;9.138;2023-02-28T10:58:56;2.20;;;1.20;;
13347;SDS011;6743;49.934;9.138;2023-02-28T11:01:24;1.47;;;1.37;;
13347;SDS011;6743;49.934;9.138;2023-02-28T11:03:59;1.90;;;1.30;;
13347;SDS011;6743;49.934;9.138;2023-02-28T11:06:28;1.57;;;1.30;;
13347;SDS011;6743;49.934;9.138;2023-02-28T11:08:56;1.43;;;1.30;;
13347;SDS011;6743;49.934;9.138;2023-02-28T11:11:26;1.40;;;1.20;;
13347;SDS011;6743;49.934;9.138;2023-02-28T11:13:54;3.17;;;1.60;;
13347;SDS011;6743;49.934;9.138;2023-02-28T11:16:30;1.73;;;1.47;;
13347;SDS011;6743;49.934;9.138;2023-02-28T11:18:58;1.47;;;1.37;;
13347;SDS011;6743;49.934;9.138;2023-02-28T11:21:25;1.37;;;1.27;;
13347;SDS011;6743;49.934;9.138;2023-02-28T11:23:56;1.63;;;1.53;;
13347;SDS011;6743;49.934;9.138;2023-02-28T11:26:36;1.30;;;1.23;;
13347;SDS011;6743;49.934;9.138;2023-02-28T11:29:11;1.43;;;1.43;;
13347;SDS011;6743;49.934;9.138;2023-02-28T11:32:07;2.13;;;1.33;;
13347;SDS011;6743;49.934;9.138;2023-02-28T11:34:38;1.70;;;1.23;;
13347;SDS011;6743;49.934;9.138;2023-02-28T11:37:09;2.07;;;1.97;;
13347;SDS011;6743;49.934;9.138;2023-02-28T11:39:38;1.57;;;1.47;;
13347;SDS011;6743;49.934;9.138;2023-02-28T11:45:01;1.50;;;1.30;;
13347;SDS011;6743;49.934;9.138;2023-02-28T11:47:38;2.10;;;1.47;;
13347;SDS011;6743;49.934;9.138;2023-02-28T11:50:16;1.93;;;1.73;;
13347;SDS011;6743;49.934;9.138;2023-02-28T11:52:51;1.50;;;1.40;;
13347;SDS011;6743;49.934;9.138;2023-02-28T11:55:20;2.70;;;1.50;;
13347;SDS011;6743;49.934;9.138;2023-02-28T11:58:11;2.50;;;1.90;;
13347;SDS011;6743;49.934;9.138;2023-02-28T12:01:01;1.33;;;1.23;;
13347;SDS011;6743;49.934;9.138;2023-02-28T12:03:39;2.03;;;1.93;;
13347;SDS011;6743;49.934;9.138;2023-02-28T12:06:13;2.73;;;1.33;;
13347;SDS011;6743;49.934;9.138;2023-02-28T12:08:52;1.43;;;1.33;;
13347;SDS011;6743;49.934;9.138;2023-02-28T12:11:30;1.67;;;1.33;;
13347;SDS011;6743;49.934;9.138;2023-02-28T12:14:24;1.40;;;1.30;;
13347;SDS011;6743;49.934;9.138;2023-02-28T12:17:04;1.67;;;1.47;;
13347;SDS011;6743;49.934;9.138;2023-02-28T12:19:41;1.23;;;1.13;;
13347;SDS011;6743;49.934;9.138;2023-02-28T12:22:22;1.13;;;1.13;;
13347;SDS011;6743;49.934;9.138;2023-02-28T12:25:00;1.10;;;1.10;;
13347;SDS011;6743;49.934;9.138;2023-02-28T12:27:46;1.47;;;1.37;;
13347;SDS011;6743;49.934;9.138;2023-02-28T12:30:14;1.63;;;1.53;;
13347;SDS011;6743;49.934;9.138;2023-02-28T12:32:45;2.10;;;1.93;;
13347;SDS011;6743;49.934;9.138;2023-02-28T12:35:16;1.90;;;1.80;;
13347;SDS011;6743;49.934;9.138;2023-02-28T12:37:46;1.93;;;1.73;;
13347;SDS011;6743;49.934;9.138;2023-02-28T12:40:19;1.43;;;1.33;;
13347;SDS011;6743;49.934;9.138;2023-02-28T12:42:48;2.07;;;1.63;;
13347;SDS011;6743;49.934;9.138;2023-02-28T12:45:18;1.37;;;1.23;;
13347;SDS011;6743;49.934;9.138;2023-02-28T12:47:46;1.90;;;1.50;;
13347;SDS011;6743;49.934;9.138;2023-02-28T12:50:17;1.67;;;1.57;;
13347;SDS011;6743;49.934;9.138;2023-02-28T12:52:51;2.73;;;1.87;;
13347;SDS011;6743;49.934;9.138;2023-02-28T12:55:23;1.80;;;1.43;;
13347;SDS011;6743;49.934;9.138;2023-02-28T12:57:58;3.03;;;1.37;;
13347;SDS011;6743;49.934;9.138;2023-02-28T13:00:35;1.47;;;1.37;;
13347;SDS011;6743;49.934;9.138;2023-02-28T13:06:10;1.73;;;1.63;;
13347;SDS011;6743;49.934;9.138;2023-02-28T13:08:57;2.50;;;1.53;;
13347;SDS011;6743;49.934;9.138;2023-02-28T13:11:28;1.80;;;1.70;;
13347;SDS011;6743;49.934;9.138;2023-02-28T13:14:00;1.80;;;1.57;;
13347;SDS011;6743;49.934;9.138;2023-02-28T13:16:29;1.50;;;1.43;;
13347;SDS011;6743;49.934;9.138;2023-02-28T13:19:16;1.73;;;1.40;;
13347;SDS011;6743;49.934;9.138;2023-02-28T13:21:45;1.60;;;1.50;;
13347;SDS011;6743;49.934;9.138;2023-02-28T13:24:27;1.87;;;1.77;;
13347;SDS011;6743;49.934;9.138;2023-02-28T13:29:50;1.33;;;1.23;;
13347;SDS011;6743;49.934;9.138;2023-02-28T13:44:01;1.67;;;1.57;;
13347;SDS011;6743;49.934;9.138;2023-02-28T13:46:29;1.67;;;1.33;;
13347;SDS011;6743;49.934;9.138;2023-02-28T13:48:56;1.57;;;0.90;;
13347;SDS011;6743;49.934;9.138;2023-02-28T13:51:43;1.50;;;1.40;;
13347;SDS011;6743;49.934;9.138;2023-02-28T13:57:08;2.07;;;1.87;;
13347;SDS011;6743;49.934;9.138;2023-02-28T13:59:47;1.40;;;1.40;;
13347;SDS011;6743;49.934;9.138;2023-02-28T14:05:13;1.50;;;1.40;;
13347;SDS011;6743;49.934;9.138;2023-02-28T14:07:42;1.90;;;1.80;;
13347;SDS011;6743;49.934;9.138;2023-02-28T14:10:20;1.47;;;1.37;;
13347;SDS011;6743;49.934;9.138;2023-02-28T14:12:57;1.50;;;1.40;;
13347;SDS011;6743;49.934;9.138;2023-02-28T14:15:45;1.77;;;1.47;;
13347;SDS011;6743;49.934;9.138;2023-02-28T14:18:19;3.03;;;2.07;;
13347;SDS011;6743;49.934;9.138;2023-02-28T14:20:49;1.47;;;1.37;;
13347;SDS011;6743;49.934;9.138;2023-02-28T14:26:33;1.70;;;1.60;;
13347;SDS011;6743;49.934;9.138;2023-02-28T14:29:17;1.40;;;1.30;;
13347;SDS011;6743;49.934;9.138;2023-02-28T14:31:57;2.57;;;1.40;;
13347;SDS011;6743;49.934;9.138;2023-02-28T14:34:31;1.70;;;1.60;;
13347;SDS011;6743;49.934;9.138;2023-02-28T14:37:09;2.10;;;1.77;;
13347;SDS011;6743;49.934;9.138;2023-02-28T14:39:42;2.07;;;1.63;;
13347;SDS011;6743;49.934;9.138;2023-02-28T14:44:55;1.53;;;1.43;;
13347;SDS011;6743;49.934;9.138;2023-02-28T14:47:21;2.47;;;1.40;;
13347;SDS011;6743;49.934;9.138;2023-02-28T14:49:50;3.37;;;2.33;;
13347;SDS011;6743;49.934;9.138;2023-02-28T14:52:17;1.50;;;1.40;;
13347;SDS011;6743;49.934;9.138;2023-02-28T14:54:46;2.53;;;1.87;;
13347;SDS011;6743;49.934;9.138;2023-02-28T14:57:22;1.73;;;1.63;;
13347;SDS011;6743;49.934;9.138;2023-02-28T14:59:56;1.47;;;1.30;;
13347;SDS011;6743;49.934;9.138;2023-02-28T15:02:24;2.27;;;1.83;;
13347;SDS011;6743;49.934;9.138;2023-02-28T15:04:52;2.63;;;1.53;;
13347;SDS011;6743;49.934;9.138;2023-02-28T15:07:20;1.53;;;1.43;;
13347;SDS011;6743;49.934;9.138;2023-02-28T15:10:07;3.13;;;1.80;;
13347;SDS011;6743;49.934;9.138;2023-02-28T15:12:34;1.70;;;1.60;;
13347;SDS011;6743;49.934;9.138;2023-02-28T15:15:01;1.60;;;1.47;;
13347;SDS011;6743;49.934;9.138;2023-02-28T15:17:27;3.17;;;2.37;;
13347;SDS011;6743;49.934;9.138;2023-02-28T15:19:53;2.67;;;1.80;;
13347;SDS011;6743;49.934;9.138;2023-02-28T15:22:22;1.70;;;1.60;;
13347;SDS011;6743;49.934;9.138;2023-02-28T15:24:54;1.80;;;1.70;;
13347;SDS011;6743;49.934;9.138;2023-02-28T15:27:22;1.80;;;1.63;;
13347;SDS011;6743;49.934;9.138;2023-02-28T15:29:53;2.03;;;1.63;;
13347;SDS011;6743;49.934;9.138;2023-02-28T15:32:27;1.33;;;1.23;;
13347;SDS011;6743;49.934;9.138;2023-02-28T15:34:54;1.97;;;1.83;;
13347;SDS011;6743;49.934;9.138;2023-02-28T15:37:25;2.73;;;1.87;;
13347;SDS011;6743;49.934;9.138;2023-02-28T15:40:11;1.77;;;1.67;;
13347;SDS011;6743;49.934;9.138;2023-02-28T15:42:40;2.17;;;1.50;;
13347;SDS011;6743;49.934;9.138;2023-02-28T15:47:53;1.53;;;1.43;;
13347;SDS011;6743;49.934;9.138;2023-02-28T15:50:20;2.07;;;1.67;;
13347;SDS011;6743;49.934;9.138;2023-02-28T15:52:46;1.77;;;1.67;;
13347;SDS011;6743;49.934;9.138;2023-02-28T15:55:17;2.07;;;1.60;;
13347;SDS011;6743;49.934;9.138;2023-02-28T15:57:45;1.93;;;1.50;;
13347;SDS011;6743;49.934;9.138;2023-02-28T16:00:15;2.80;;;1.57;;